createdAt,value
2023-04-25T00:02:13.430Z,98353.75
2023-04-25T00:04:41.118Z,98340.97
2023-04-25T00:07:08.291Z,98352.00
2023-04-25T00:09:35.185Z,98344.41
2023-04-25T00:12:02.455Z,98351.34
2023-04-25T00:14:31.329Z,98348.94
2023-04-25T00:16:58.843Z,98351.53
2023-04-25T00:19:25.800Z,98351.53
2023-04-25T00:21:52.634Z,98332.09
2023-04-25T00:24:19.519Z,98340.06
2023-04-25T00:26:46.362Z,98331.66
2023-04-25T00:29:13.213Z,98333.31
2023-04-25T00:31:40.256Z,98326.38
2023-04-25T00:34:08.142Z,98323.13
2023-04-25T00:36:35.147Z,98334.97
2023-04-25T00:39:02.568Z,98339.13
2023-04-25T00:41:31.101Z,98340.06
2023-04-25T00:43:58.852Z,98334.97
2023-04-25T00:46:25.652Z,98334.69
2023-04-25T00:48:52.632Z,98339.31
2023-04-25T00:51:22.209Z,98330.16
2023-04-25T00:53:51.272Z,98323.69
2023-04-25T00:56:19.204Z,98316.19
2023-04-25T00:58:46.571Z,98313.59
2023-04-25T01:01:14.116Z,98320.25
2023-04-25T01:03:44.634Z,98313.22
2023-04-25T01:06:13.703Z,98314.97
2023-04-25T01:08:40.901Z,98310.72
2023-04-25T01:11:07.958Z,98312.56
2023-04-25T01:13:35.749Z,98311.56
2023-04-25T01:16:03.907Z,98315.81
2023-04-25T01:18:30.935Z,98301.91
2023-04-25T01:21:11.005Z,98304.50
2023-04-25T01:23:40.952Z,98301.44
2023-04-25T01:26:10.861Z,98294.91
2023-04-25T01:28:40.529Z,98295.47
2023-04-25T01:31:07.580Z,98290.19
2023-04-25T01:33:34.827Z,98284.69
2023-04-25T01:36:01.620Z,98292.13
2023-04-25T01:38:28.561Z,98293.03
2023-04-25T01:40:56.530Z,98295.63
2023-04-25T01:43:23.548Z,98292.22
2023-04-25T01:45:51.321Z,98292.31
2023-04-25T01:48:18.731Z,98295.47
2023-04-25T01:50:46.886Z,98300.72
2023-04-25T01:53:15.683Z,98297.22
2023-04-25T01:55:42.599Z,98296.38
2023-04-25T01:58:10.806Z,98298.22
2023-04-25T02:00:39.827Z,98292.94
2023-04-25T02:03:07.231Z,98279.53
2023-04-25T02:05:39.084Z,98294.72
2023-04-25T02:08:07.954Z,98292.31
2023-04-25T02:10:35.634Z,98291.03
2023-04-25T02:13:02.770Z,98290.81
2023-04-25T02:15:29.591Z,98289.25
2023-04-25T02:17:56.945Z,98283.41
2023-04-25T02:20:25.052Z,98276.38
2023-04-25T02:22:52.811Z,98282.22
2023-04-25T02:25:21.050Z,98282.03
2023-04-25T02:27:48.848Z,98282.03
2023-04-25T02:30:16.376Z,98278.63
2023-04-25T02:32:43.413Z,98280.47
2023-04-25T02:35:11.152Z,98277.47
2023-04-25T02:37:39.995Z,98272.28
2023-04-25T02:40:07.936Z,98269.16
2023-04-25T02:42:35.568Z,98264.00
2023-04-25T02:45:03.351Z,98271.84
2023-04-25T02:47:31.131Z,98266.47
2023-04-25T02:49:58.065Z,98269.16
2023-04-25T02:52:24.874Z,98262.13
2023-04-25T02:54:51.922Z,98271.59
2023-04-25T02:57:18.765Z,98271.59
2023-04-25T02:59:45.742Z,98270.66
2023-04-25T03:02:12.572Z,98275.81
2023-04-25T03:04:39.632Z,98280.06
2023-04-25T03:07:06.698Z,98265.66
2023-04-25T03:09:33.786Z,98267.31
2023-04-25T03:12:01.197Z,98260.84
2023-04-25T03:14:28.017Z,98260.63
2023-04-25T03:16:55.000Z,98258.03
2023-04-25T03:19:21.925Z,98259.81
2023-04-25T03:21:49.481Z,98257.88
2023-04-25T03:24:16.399Z,98260.28
2023-04-25T03:26:43.247Z,98260.09
2023-04-25T03:29:10.336Z,98263.63
2023-04-25T03:31:37.155Z,98258.72
2023-04-25T03:34:04.091Z,98255.47
2023-04-25T03:36:30.928Z,98260.47
2023-04-25T03:38:57.750Z,98253.00
2023-04-25T03:41:24.577Z,98242.69
2023-04-25T03:43:51.676Z,98250.75
2023-04-25T03:46:18.780Z,98250.25
2023-04-25T03:48:45.579Z,98258.06
2023-04-25T03:51:12.411Z,98257.59
2023-04-25T03:53:39.233Z,98256.56
2023-04-25T03:56:06.580Z,98242.31
2023-04-25T03:58:33.666Z,98260.56
2023-04-25T04:01:00.559Z,98259.81
2023-04-25T04:03:27.709Z,98255.22
2023-04-25T04:05:54.823Z,98258.34
2023-04-25T04:08:21.754Z,98259.00
2023-04-25T04:10:48.594Z,98261.66
2023-04-25T04:13:15.499Z,98265.84
2023-04-25T04:15:42.410Z,98241.06
2023-04-25T04:18:09.347Z,98258.50
2023-04-25T04:20:36.309Z,98260.09
2023-04-25T04:23:03.254Z,98258.34
2023-04-25T04:25:31.059Z,98267.03
2023-04-25T04:27:58.252Z,98268.06
2023-04-25T04:30:26.395Z,98267.13
2023-04-25T04:32:53.533Z,98270.56
2023-04-25T04:35:20.400Z,98265.28
2023-04-25T04:37:47.292Z,98272.31
2023-04-25T04:40:16.532Z,98273.94
2023-04-25T04:42:44.636Z,98275.75
2023-04-25T04:45:11.789Z,98239.09
2023-04-25T04:47:40.436Z,98277.66
2023-04-25T04:50:10.353Z,98288.78
2023-04-25T04:52:38.103Z,98288.03
2023-04-25T04:55:09.033Z,98284.59
2023-04-25T04:57:36.842Z,98280.59
2023-04-25T05:00:06.138Z,98284.97
2023-04-25T05:02:33.019Z,98279.94
2023-04-25T05:04:59.938Z,98286.72
2023-04-25T05:07:26.709Z,98289.97
2023-04-25T05:09:53.496Z,98291.72
2023-04-25T05:12:20.362Z,98292.47
2023-04-25T05:14:47.219Z,98284.59
2023-04-25T05:17:14.029Z,98295.63
2023-04-25T05:19:40.976Z,98287.94
2023-04-25T05:22:07.780Z,98288.78
2023-04-25T05:24:34.644Z,98223.53
2023-04-25T05:27:01.442Z,98293.22
2023-04-25T05:29:28.233Z,98256.56
2023-04-25T05:31:55.205Z,98292.28
2023-04-25T05:34:22.023Z,98294.88
2023-04-25T05:36:51.382Z,98294.88
2023-04-25T05:39:18.462Z,98297.44
2023-04-25T05:41:45.415Z,98300.03
2023-04-25T05:44:12.229Z,98304.31
2023-04-25T05:46:39.201Z,98294.88
2023-04-25T05:49:06.070Z,98300.31
2023-04-25T05:51:32.883Z,98296.16
2023-04-25T05:53:59.690Z,98305.31
2023-04-25T05:56:26.772Z,98294.88
2023-04-25T05:58:53.780Z,98300.69
2023-04-25T06:01:20.850Z,98285.78
2023-04-25T06:03:48.248Z,98295.81
2023-04-25T06:06:15.416Z,98303.94
2023-04-25T06:08:42.660Z,98292.84
2023-04-25T06:11:09.584Z,98291.16
2023-04-25T06:13:36.568Z,98295.34
2023-04-25T06:16:03.580Z,98305.78
2023-04-25T06:18:30.464Z,98299.22
2023-04-25T06:20:57.224Z,98310.31
2023-04-25T06:23:24.027Z,98307.81
2023-04-25T06:25:50.934Z,98308.19
2023-04-25T06:28:17.708Z,98296.34
2023-04-25T06:30:44.576Z,98294.41
2023-04-25T06:33:11.406Z,98289.13
2023-04-25T06:35:38.277Z,98288.22
2023-04-25T06:38:05.239Z,98284.69
2023-04-25T06:40:32.006Z,98284.69
2023-04-25T06:42:59.116Z,98277.22
2023-04-25T06:45:25.888Z,98273.41
2023-04-25T06:47:52.738Z,98277.56
2023-04-25T06:50:19.559Z,98281.00
2023-04-25T06:52:46.371Z,98273.25
2023-04-25T06:55:13.192Z,98282.13
2023-04-25T06:57:39.993Z,98283.59
2023-04-25T07:00:10.194Z,98277.75
2023-04-25T07:02:37.404Z,98291.09
2023-04-25T07:05:05.340Z,98291.00
2023-04-25T07:07:32.245Z,98291.53
2023-04-25T07:09:59.179Z,98294.13
2023-04-25T07:12:26.026Z,98294.69
2023-04-25T07:14:52.826Z,98291.28
2023-04-25T07:17:19.650Z,98300.06
2023-04-25T07:19:46.601Z,98300.25
2023-04-25T07:22:13.526Z,98288.59
2023-04-25T07:24:40.661Z,98302.44
2023-04-25T07:27:07.600Z,98299.31
2023-04-25T07:29:37.956Z,98300.63
2023-04-25T07:32:05.292Z,98304.06
2023-04-25T07:34:33.078Z,98303.31
2023-04-25T07:37:00.363Z,98299.69
2023-04-25T07:39:27.823Z,98315.34
2023-04-25T07:41:55.461Z,98311.16
2023-04-25T07:44:22.574Z,98323.81
2023-04-25T07:46:49.467Z,98323.66
2023-04-25T07:49:16.345Z,98316.59
2023-04-25T07:51:44.429Z,98329.13
2023-04-25T07:54:15.615Z,98331.63
2023-04-25T07:56:52.238Z,98328.19
2023-04-25T07:59:20.823Z,98344.31
2023-04-25T08:01:47.647Z,98339.28
2023-04-25T08:04:14.898Z,98343.00
2023-04-25T08:06:42.111Z,98346.25
2023-04-25T08:09:10.336Z,98352.06
2023-04-25T08:11:37.617Z,98354.56
2023-04-25T08:14:04.456Z,98357.91
2023-04-25T08:16:31.324Z,98358.72
2023-04-25T08:18:59.838Z,98357.50
2023-04-25T08:21:27.860Z,98367.56
2023-04-25T08:23:54.859Z,98364.78
2023-04-25T08:26:21.656Z,98371.47
2023-04-25T08:28:48.934Z,98372.97
2023-04-25T08:31:16.039Z,98379.97
2023-04-25T08:33:43.165Z,98381.97
2023-04-25T08:36:10.056Z,98382.72
2023-04-25T08:38:37.532Z,98387.41
2023-04-25T08:41:06.524Z,98388.75
2023-04-25T08:43:33.956Z,98392.06
2023-04-25T08:46:02.095Z,98399.44
2023-04-25T08:48:29.884Z,98400.19
2023-04-25T08:50:57.623Z,98411.72
2023-04-25T08:53:30.856Z,98407.03
2023-04-25T08:55:59.841Z,98417.97
2023-04-25T08:58:27.857Z,98413.56
2023-04-25T09:00:54.692Z,98422.16
2023-04-25T09:03:21.864Z,98422.66
2023-04-25T09:05:48.936Z,98427.69
2023-04-25T09:08:15.923Z,98425.34
2023-04-25T09:10:42.873Z,98427.84
2023-04-25T09:13:18.396Z,98434.53
2023-04-25T09:15:57.071Z,98441.38
2023-04-25T09:18:30.263Z,98442.22
2023-04-25T09:21:14.253Z,98441.22
2023-04-25T09:23:47.038Z,98444.88
2023-04-25T09:26:21.447Z,98452.06
2023-04-25T09:28:51.444Z,98447.28
2023-04-25T09:31:28.036Z,98453.13
2023-04-25T09:34:02.336Z,98459.56
2023-04-25T09:36:30.897Z,98464.56
2023-04-25T09:39:00.742Z,98472.41
2023-04-25T09:41:27.547Z,98478.53
2023-04-25T09:43:59.983Z,98477.28
2023-04-25T09:46:39.522Z,98476.34
2023-04-25T09:49:09.594Z,98480.34
2023-04-25T09:51:36.554Z,98480.84
2023-04-25T09:54:04.159Z,98478.69
2023-04-25T09:56:37.108Z,98485.28
2023-04-25T09:59:04.595Z,98492.41
2023-04-25T10:01:31.860Z,98499.47
2023-04-25T10:04:00.538Z,98504.16
2023-04-25T10:06:29.474Z,98510.81
2023-04-25T10:08:57.154Z,98502.38
2023-04-25T10:11:27.266Z,98508.13
2023-04-25T10:13:54.256Z,98509.72
2023-04-25T10:16:22.119Z,98507.44
2023-04-25T10:18:49.794Z,98516.97
2023-04-25T10:21:17.389Z,98516.28
2023-04-25T10:23:44.825Z,98524.72
2023-04-25T10:26:13.774Z,98530.69
2023-04-25T10:29:02.090Z,98532.81
2023-04-25T10:31:31.780Z,98544.25
2023-04-25T10:34:00.534Z,98543.63
2023-04-25T10:36:30.095Z,98545.00
2023-04-25T10:38:58.987Z,98547.88
2023-04-25T10:41:25.908Z,98545.88
2023-04-25T10:44:02.276Z,98554.69
2023-04-25T10:46:31.719Z,98554.44
2023-04-25T10:49:01.992Z,98557.78
2023-04-25T10:51:54.476Z,98570.56
2023-04-25T10:54:26.078Z,98559.84
2023-04-25T10:56:54.120Z,98564.19
2023-04-25T10:59:22.405Z,98563.44
2023-04-25T11:01:53.547Z,98570.78
2023-04-25T11:04:28.245Z,98574.03
2023-04-25T11:07:23.743Z,98586.09
2023-04-25T11:09:51.115Z,98587.84
2023-04-25T11:12:18.578Z,98585.72
2023-04-25T11:14:45.513Z,98581.41
2023-04-25T11:17:12.802Z,98590.28
2023-04-25T11:19:39.812Z,98590.19
2023-04-25T11:22:07.718Z,98604.06
2023-04-25T11:24:37.269Z,98599.56
2023-04-25T11:27:07.125Z,98593.53
2023-04-25T11:29:36.117Z,98607.41
2023-04-25T11:32:03.307Z,98616.53
2023-04-25T11:34:32.160Z,98616.75
2023-04-25T11:37:00.741Z,98623.19
2023-04-25T11:39:28.838Z,98619.38
2023-04-25T11:41:56.352Z,98625.47
2023-04-25T11:44:23.463Z,98623.78
2023-04-25T11:46:50.393Z,98624.56
2023-04-25T11:49:19.082Z,98621.00
2023-04-25T11:51:48.584Z,98626.09
2023-04-25T11:54:16.507Z,98623.19
2023-04-25T11:56:44.749Z,98628.28
2023-04-25T11:59:13.013Z,98629.97
2023-04-25T12:01:42.334Z,98636.09
2023-04-25T12:04:18.432Z,98631.88
2023-04-25T12:06:51.599Z,98638.38
2023-04-25T12:09:29.770Z,98626.38
2023-04-25T12:11:59.206Z,98639.22
2023-04-25T12:14:31.796Z,98644.13
2023-04-25T12:17:04.936Z,98646.03
2023-04-25T12:19:37.388Z,98649.41
2023-04-25T12:22:20.694Z,98652.13
2023-04-25T12:24:47.488Z,98643.38
2023-04-25T12:27:17.611Z,98648.34
2023-04-25T12:29:53.358Z,98645.66
2023-04-25T12:32:20.426Z,98655.78
2023-04-25T12:34:47.324Z,98659.06
2023-04-25T12:37:14.499Z,98661.31
2023-04-25T12:39:41.390Z,98667.19
2023-04-25T12:42:14.556Z,98669.41
2023-04-25T12:44:42.122Z,98666.66
2023-04-25T12:47:09.400Z,98669.47
2023-04-25T12:49:36.383Z,98672.66
2023-04-25T12:52:03.277Z,98662.31
2023-04-25T12:54:30.228Z,98671.81
2023-04-25T12:56:58.162Z,98672.66
2023-04-25T12:59:25.101Z,98684.16
2023-04-25T13:01:51.923Z,98677.34
2023-04-25T13:04:21.273Z,98672.03
2023-04-25T13:06:48.307Z,98672.97
2023-04-25T13:09:16.290Z,98670.09
2023-04-25T13:11:44.477Z,98670.00
2023-04-25T13:14:11.689Z,98667.16
2023-04-25T13:16:38.897Z,98661.09
2023-04-25T13:19:06.569Z,98657.22
2023-04-25T13:21:33.608Z,98649.88
2023-04-25T13:24:00.858Z,98651.88
2023-04-25T13:26:27.795Z,98660.31
2023-04-25T13:28:54.663Z,98659.38
2023-04-25T13:31:22.027Z,98669.91
2023-04-25T13:33:49.163Z,98660.91
2023-04-25T13:36:16.185Z,98655.75
2023-04-25T13:38:45.132Z,98660.00
2023-04-25T13:41:16.509Z,98665.78
2023-04-25T13:43:43.317Z,98655.19
2023-04-25T13:46:24.906Z,98660.81
2023-04-25T13:49:03.024Z,98649.50
2023-04-25T13:51:37.051Z,98659.16
2023-04-25T13:54:04.034Z,98656.13
2023-04-25T13:56:31.196Z,98659.50
2023-04-25T13:58:58.205Z,98663.59
2023-04-25T14:01:25.093Z,98658.47
2023-04-25T14:03:52.148Z,98656.91
2023-04-25T14:06:23.755Z,98661.84
2023-04-25T14:08:53.638Z,98652.66
2023-04-25T14:11:20.583Z,98659.91
2023-04-25T14:13:49.230Z,98673.31
2023-04-25T14:16:17.493Z,98667.03
2023-04-25T14:18:44.392Z,98661.72
2023-04-25T14:21:11.736Z,98657.13
2023-04-25T14:23:38.585Z,98658.63
2023-04-25T14:26:06.191Z,98645.00
2023-04-25T14:28:33.293Z,98643.34
2023-04-25T14:31:00.308Z,98652.09
2023-04-25T14:33:27.203Z,98647.84
2023-04-25T14:35:54.130Z,98663.38
2023-04-25T14:38:24.159Z,98668.88
2023-04-25T14:40:51.095Z,98666.56
2023-04-25T14:43:18.002Z,98629.59
2023-04-25T14:45:44.784Z,98656.28
2023-04-25T14:48:11.711Z,98659.47
2023-04-25T14:50:38.577Z,98666.16
2023-04-25T14:53:05.994Z,98664.97
2023-04-25T14:55:32.891Z,98666.50
2023-04-25T14:57:59.724Z,98668.75
2023-04-25T15:00:27.642Z,98663.22
2023-04-25T15:02:54.617Z,98675.59
2023-04-25T15:05:21.529Z,98669.56
2023-04-25T15:07:48.918Z,98667.56
2023-04-25T15:10:16.951Z,98664.84
2023-04-25T15:12:46.937Z,98659.13
2023-04-25T15:15:22.684Z,98659.38
2023-04-25T15:17:52.575Z,98664.88
2023-04-25T15:20:19.412Z,98662.91
2023-04-25T15:22:46.895Z,98660.16
2023-04-25T15:25:13.832Z,98656.03
2023-04-25T15:27:45.955Z,98660.97
2023-04-25T15:30:17.662Z,98670.06
2023-04-25T15:32:48.421Z,98635.66
2023-04-25T15:35:16.076Z,98658.81
2023-04-25T15:37:42.944Z,98656.88
2023-04-25T15:40:14.559Z,98658.47
2023-04-25T15:42:47.941Z,98657.69
2023-04-25T15:45:17.790Z,98661.75
2023-04-25T15:47:45.431Z,98667.59
2023-04-25T15:50:13.473Z,98671.78
2023-04-25T15:52:40.880Z,98659.72
2023-04-25T15:55:08.732Z,98668.25
2023-04-25T15:57:37.282Z,98669.09
2023-04-25T16:00:11.033Z,98665.75
2023-04-25T16:02:42.793Z,98672.09
2023-04-25T16:05:11.456Z,98671.25
2023-04-25T16:07:40.071Z,98679.72
2023-04-25T16:10:07.891Z,98685.75
2023-04-25T16:12:34.881Z,98669.84
2023-04-25T16:15:01.803Z,98674.47
2023-04-25T16:17:30.026Z,98672.78
2023-04-25T16:19:57.925Z,98676.97
2023-04-25T16:22:25.213Z,98678.63
2023-04-25T16:24:52.422Z,98682.97
2023-04-25T16:27:19.363Z,98684.84
2023-04-25T16:29:46.506Z,98683.91
2023-04-25T16:32:13.644Z,98682.88
2023-04-25T16:34:40.422Z,98682.88
2023-04-25T16:37:07.228Z,98680.22
2023-04-25T16:39:34.551Z,98686.22
2023-04-25T16:42:03.418Z,98685.31
2023-04-25T16:44:31.623Z,98685.31
2023-04-25T16:46:58.516Z,98687.91
2023-04-25T16:49:26.290Z,98686.00
2023-04-25T16:51:53.133Z,98687.75
2023-04-25T16:54:20.083Z,98687.66
2023-04-25T16:56:47.123Z,98697.72
2023-04-25T16:59:13.951Z,98697.34
2023-04-25T17:01:40.841Z,98690.34
2023-04-25T17:04:07.859Z,98697.94
2023-04-25T17:06:35.225Z,98698.03
2023-04-25T17:09:02.075Z,98698.69
2023-04-25T17:11:28.990Z,98710.06
2023-04-25T17:13:56.003Z,98699.69
2023-04-25T17:16:23.260Z,98703.88
2023-04-25T17:18:51.457Z,98706.38
2023-04-25T17:21:18.765Z,98701.28
2023-04-25T17:23:45.917Z,98701.09
2023-04-25T17:26:13.492Z,98715.91
2023-04-25T17:28:41.932Z,98709.72
2023-04-25T17:31:09.781Z,98714.59
2023-04-25T17:33:36.710Z,98721.63
2023-04-25T17:36:04.095Z,98723.19
2023-04-25T17:38:31.601Z,98722.78
2023-04-25T17:40:58.888Z,98721.63
2023-04-25T17:43:27.655Z,98719.78
2023-04-25T17:45:54.843Z,98731.16
2023-04-25T17:48:22.797Z,98729.91
2023-04-25T17:50:49.893Z,98734.00
2023-04-25T17:53:16.791Z,98740.00
2023-04-25T17:55:44.032Z,98752.97
2023-04-25T17:58:13.562Z,98743.72
2023-04-25T18:00:40.970Z,98746.41
2023-04-25T18:03:07.966Z,98761.38
2023-04-25T18:05:35.781Z,98753.03
2023-04-25T18:08:02.594Z,98762.41
2023-04-25T18:10:29.472Z,98762.25
2023-04-25T18:12:56.256Z,98779.03
2023-04-25T18:15:23.167Z,98780.13
2023-04-25T18:17:50.323Z,98788.38
2023-04-25T18:20:17.522Z,98787.78
2023-04-25T18:22:46.034Z,98779.97
2023-04-25T18:25:13.774Z,98810.06
2023-04-25T18:27:41.587Z,98807.28
2023-04-25T18:30:10.796Z,98827.31
2023-04-25T18:32:38.252Z,98832.41
2023-04-25T18:35:05.904Z,98828.09
2023-04-25T18:37:32.956Z,98830.34
2023-04-25T18:39:59.768Z,98825.78
2023-04-25T18:42:26.617Z,98836.16
2023-04-25T18:44:53.447Z,98841.31
2023-04-25T18:47:20.300Z,98848.66
2023-04-25T18:49:47.900Z,98844.31
2023-04-25T18:52:15.963Z,98839.28
2023-04-25T18:54:43.303Z,98845.97
2023-04-25T18:57:11.532Z,98848.50
2023-04-25T18:59:38.290Z,98857.34
2023-04-25T19:02:05.466Z,98863.50
2023-04-25T19:04:32.809Z,98854.13
2023-04-25T19:06:59.789Z,98847.13
2023-04-25T19:09:26.670Z,98856.59
2023-04-25T19:11:54.104Z,98855.56
2023-04-25T19:14:20.928Z,98858.00
2023-04-25T19:16:47.762Z,98856.50
2023-04-25T19:19:14.772Z,98857.34
2023-04-25T19:21:41.803Z,98843.31
2023-04-25T19:24:09.164Z,98858.94
2023-04-25T19:26:36.122Z,98857.84
2023-04-25T19:29:14.318Z,98873.84
2023-04-25T19:31:44.218Z,98874.81
2023-04-25T19:34:12.869Z,98877.56
2023-04-25T19:36:42.176Z,98881.50
2023-04-25T19:39:09.186Z,98879.97
2023-04-25T19:41:38.118Z,98880.13
2023-04-25T19:44:08.387Z,98879.06
2023-04-25T19:46:36.767Z,98868.50
2023-04-25T19:49:07.233Z,98873.47
2023-04-25T19:51:35.576Z,98867.22
2023-04-25T19:54:02.692Z,98837.06
2023-04-25T19:56:29.668Z,98874.91
2023-04-25T19:58:58.326Z,98880.94
2023-04-25T20:01:26.223Z,98881.06
2023-04-25T20:03:53.707Z,98884.72
2023-04-25T20:06:20.805Z,98885.41
2023-04-25T20:08:47.685Z,98904.38
2023-04-25T20:11:15.093Z,98898.28
2023-04-25T20:13:42.033Z,98894.22
2023-04-25T20:16:08.953Z,98898.19
2023-04-25T20:18:35.810Z,98905.88
2023-04-25T20:21:02.772Z,98899.91
2023-04-25T20:23:29.590Z,98899.81
2023-04-25T20:25:56.377Z,98885.50
2023-04-25T20:28:23.402Z,98905.00
2023-04-25T20:30:50.689Z,98911.84
2023-04-25T20:33:17.570Z,98910.16
2023-04-25T20:35:44.481Z,98921.50
2023-04-25T20:38:12.033Z,98904.38
2023-04-25T20:40:38.848Z,98916.25
2023-04-25T20:43:05.901Z,98917.00
2023-04-25T20:45:34.512Z,98912.69
2023-04-25T20:48:02.576Z,98915.50
2023-04-25T20:50:29.576Z,98914.81
2023-04-25T20:52:57.212Z,98922.66
2023-04-25T20:55:24.255Z,98917.47
2023-04-25T20:57:51.950Z,98920.19
2023-04-25T21:00:26.478Z,98917.31
2023-04-25T21:02:54.525Z,98922.50
2023-04-25T21:05:22.347Z,98918.28
2023-04-25T21:07:49.969Z,98931.22
2023-04-25T21:10:17.792Z,98921.88
2023-04-25T21:12:49.345Z,98929.56
2023-04-25T21:15:18.057Z,98890.94
2023-04-25T21:17:47.351Z,98938.03
2023-04-25T21:20:19.406Z,98933.13
2023-04-25T21:22:53.819Z,98937.34
2023-04-25T21:25:43.068Z,98942.44
2023-04-25T21:28:09.997Z,98931.47
2023-04-25T21:30:36.815Z,98930.63
2023-04-25T21:33:03.860Z,98946.00
2023-04-25T21:35:30.708Z,98929.78
2023-04-25T21:37:57.608Z,98935.72
2023-04-25T21:40:24.456Z,98938.31
2023-04-25T21:42:51.846Z,98933.13
2023-04-25T21:45:19.836Z,98934.81
2023-04-25T21:47:50.774Z,98927.31
2023-04-25T21:50:18.850Z,98942.75
2023-04-25T21:52:45.715Z,98940.88
2023-04-25T21:55:12.483Z,98948.81
2023-04-25T21:57:39.292Z,98954.13
2023-04-25T22:00:20.113Z,98960.16
2023-04-25T22:02:51.558Z,98950.06
2023-04-25T22:05:21.100Z,98954.13
2023-04-25T22:07:49.255Z,98961.97
2023-04-25T22:10:16.333Z,98951.06
2023-04-25T22:12:43.350Z,98953.22
2023-04-25T22:15:12.584Z,98955.09
2023-04-25T22:17:40.319Z,98951.88
2023-04-25T22:20:13.229Z,98952.59
2023-04-25T22:22:41.520Z,98949.94
2023-04-25T22:25:09.687Z,98955.25
2023-04-25T22:27:36.566Z,98956.09
2023-04-25T22:30:04.032Z,98963.78
2023-04-25T22:32:31.279Z,98961.53
2023-04-25T22:34:58.220Z,98969.13
2023-04-25T22:37:25.117Z,98967.41
2023-04-25T22:39:52.745Z,98968.47
2023-04-25T22:42:19.623Z,98973.59
2023-04-25T22:44:46.962Z,98971.78
2023-04-25T22:47:13.797Z,98978.00
2023-04-25T22:49:40.807Z,98957.28
2023-04-25T22:52:08.637Z,98978.91
2023-04-25T22:54:36.187Z,98988.34
2023-04-25T22:57:07.978Z,98983.16
2023-04-25T22:59:38.063Z,98980.03
2023-04-25T23:02:04.923Z,98984.19
2023-04-25T23:04:31.894Z,98979.81
2023-04-25T23:06:58.848Z,98988.59
2023-04-25T23:09:25.720Z,98991.19
2023-04-25T23:11:53.377Z,98985.06
2023-04-25T23:14:21.173Z,98981.84
2023-04-25T23:16:48.054Z,98989.53
2023-04-25T23:19:14.926Z,98994.69
2023-04-25T23:21:42.114Z,98983.56
2023-04-25T23:24:08.985Z,98991.34
2023-04-25T23:26:35.788Z,98985.34
2023-04-25T23:29:02.581Z,98993.84
2023-04-25T23:31:29.514Z,98992.19
2023-04-25T23:33:56.394Z,98989.66
2023-04-25T23:36:23.842Z,98986.16
2023-04-25T23:38:50.923Z,98977.78
2023-04-25T23:41:18.109Z,98980.28
2023-04-25T23:43:44.947Z,98991.47
2023-04-25T23:46:12.483Z,98995.00
2023-04-25T23:48:39.400Z,98988.34
2023-04-25T23:51:06.201Z,98994.28
2023-04-25T23:53:33.178Z,98995.09
2023-04-25T23:56:00.240Z,99004.56
2023-04-25T23:58:27.103Z,98989.19
